createdAt,value
2023-05-17T00:02:18.382Z,94353.22
2023-05-17T00:04:45.655Z,94392.84
2023-05-17T00:07:12.398Z,94398.31
2023-05-17T00:09:39.106Z,94401.06
2023-05-17T00:12:06.018Z,94390.59
2023-05-17T00:14:32.768Z,94395.06
2023-05-17T00:16:59.457Z,94399.31
2023-05-17T00:19:26.225Z,94401.56
2023-05-17T00:21:53.143Z,94388.34
2023-05-17T00:24:20.144Z,94400.56
2023-05-17T00:26:47.051Z,94401.81
2023-05-17T00:29:13.670Z,94389.34
2023-05-17T00:31:41.373Z,94395.34
2023-05-17T00:34:08.128Z,94394.84
2023-05-17T00:36:34.861Z,94390.59
2023-05-17T00:39:01.526Z,94374.88
2023-05-17T00:41:28.332Z,94387.84
2023-05-17T00:43:55.780Z,94381.84
2023-05-17T00:46:22.786Z,94386.34
2023-05-17T00:48:49.644Z,94391.84
2023-05-17T00:51:19.292Z,94392.53
2023-05-17T00:53:46.360Z,94385.03
2023-05-17T00:56:13.548Z,94391.53
2023-05-17T00:58:40.964Z,94388.81
2023-05-17T01:01:07.581Z,94402.97
2023-05-17T01:03:34.641Z,94405.94
2023-05-17T01:06:02.060Z,94396.16
2023-05-17T01:08:30.166Z,94391.38
2023-05-17T01:11:21.684Z,94406.66
2023-05-17T01:14:10.145Z,94408.56
2023-05-17T01:16:55.827Z,94387.41
2023-05-17T01:19:44.146Z,94398.69
2023-05-17T01:22:28.878Z,94395.63
2023-05-17T01:25:11.072Z,94398.78
2023-05-17T01:27:41.534Z,94396.91
2023-05-17T01:30:18.490Z,94397.69
2023-05-17T01:32:45.757Z,94397.41
2023-05-17T01:35:13.048Z,94405.03
2023-05-17T01:37:40.197Z,94409.97
2023-05-17T01:40:09.164Z,94413.25
2023-05-17T01:42:42.700Z,94395.78
2023-05-17T01:45:16.904Z,94413.00
2023-05-17T01:47:53.421Z,94400.88
2023-05-17T01:50:24.293Z,94416.31
2023-05-17T01:52:59.550Z,94413.34
2023-05-17T01:55:38.113Z,94406.59
2023-05-17T01:58:08.592Z,94426.75
2023-05-17T02:00:38.283Z,94412.59
2023-05-17T02:03:05.055Z,94396.09
2023-05-17T02:05:31.907Z,94399.38
2023-05-17T02:07:58.724Z,94402.16
2023-05-17T02:10:25.390Z,94401.44
2023-05-17T02:12:52.235Z,94407.13
2023-05-17T02:15:22.482Z,94394.16
2023-05-17T02:17:49.791Z,94359.66
2023-05-17T02:20:16.634Z,94376.72
2023-05-17T02:22:43.634Z,94331.00
2023-05-17T02:25:10.466Z,94386.41
2023-05-17T02:27:37.564Z,94399.84
2023-05-17T02:30:04.964Z,94350.41
2023-05-17T02:32:32.222Z,94371.63
2023-05-17T02:34:59.419Z,94355.09
2023-05-17T02:37:27.541Z,94351.63
2023-05-17T02:39:54.603Z,94387.34
2023-05-17T02:42:21.477Z,94390.28
2023-05-17T02:44:52.931Z,94388.00
2023-05-17T02:47:22.601Z,94355.47
2023-05-17T02:49:49.510Z,94407.72
2023-05-17T02:52:19.401Z,94380.66
2023-05-17T02:54:47.918Z,94371.50
2023-05-17T02:57:14.869Z,94430.38
2023-05-17T02:59:41.564Z,94404.28
2023-05-17T03:02:08.477Z,94395.00
2023-05-17T03:04:35.565Z,94414.91
2023-05-17T03:07:04.366Z,94430.59
2023-05-17T03:09:37.368Z,94422.34
2023-05-17T03:12:04.522Z,94424.31
2023-05-17T03:14:31.268Z,94430.53
2023-05-17T03:16:57.984Z,94448.81
2023-05-17T03:19:25.056Z,94436.56
2023-05-17T03:21:51.758Z,94446.06
2023-05-17T03:24:18.824Z,94403.13
2023-05-17T03:26:45.672Z,94429.59
2023-05-17T03:29:12.403Z,94440.44
2023-05-17T03:31:39.089Z,94418.81
2023-05-17T03:34:06.056Z,94432.13
2023-05-17T03:36:35.568Z,94423.50
2023-05-17T03:39:02.495Z,94412.69
2023-05-17T03:41:29.135Z,94425.19
2023-05-17T03:43:56.176Z,94435.97
2023-05-17T03:46:22.929Z,94431.41
2023-05-17T03:48:49.814Z,94436.03
2023-05-17T03:51:16.922Z,94408.88
2023-05-17T03:53:43.699Z,94436.25
2023-05-17T03:56:11.138Z,94431.34
2023-05-17T03:58:38.460Z,94448.59
2023-05-17T04:01:05.936Z,94431.94
2023-05-17T04:03:32.917Z,94441.97
2023-05-17T04:06:07.441Z,94459.66
2023-05-17T04:08:39.808Z,94441.91
2023-05-17T04:11:15.559Z,94453.41
2023-05-17T04:13:43.602Z,94461.91
2023-05-17T04:16:10.888Z,94448.78
2023-05-17T04:18:39.265Z,94444.09
2023-05-17T04:21:06.739Z,94453.78
2023-05-17T04:23:34.838Z,94457.16
2023-05-17T04:26:01.760Z,94381.16
2023-05-17T04:28:28.889Z,94483.84
2023-05-17T04:30:56.381Z,94471.66
2023-05-17T04:33:24.770Z,94468.66
2023-05-17T04:35:55.199Z,94460.41
2023-05-17T04:38:22.224Z,94441.97
2023-05-17T04:40:49.016Z,94458.41
2023-05-17T04:43:18.470Z,94456.44
2023-05-17T04:45:45.735Z,94471.28
2023-05-17T04:48:13.200Z,94359.38
2023-05-17T04:50:40.296Z,94452.31
2023-05-17T04:53:07.132Z,94455.81
2023-05-17T04:55:33.883Z,94461.63
2023-05-17T04:58:01.240Z,94445.28
2023-05-17T05:00:28.096Z,94357.66
2023-05-17T05:02:55.325Z,94437.53
2023-05-17T05:05:22.129Z,94431.41
2023-05-17T05:07:49.247Z,94472.38
2023-05-17T05:10:16.448Z,94462.16
2023-05-17T05:12:43.423Z,94471.34
2023-05-17T05:15:11.104Z,94445.56
2023-05-17T05:17:38.255Z,94473.78
2023-05-17T05:20:05.701Z,94445.88
2023-05-17T05:22:32.518Z,94475.97
2023-05-17T05:24:59.280Z,94481.50
2023-05-17T05:27:26.431Z,94470.94
2023-05-17T05:29:54.709Z,94456.22
2023-05-17T05:32:21.424Z,94463.47
2023-05-17T05:34:48.510Z,94498.75
2023-05-17T05:37:17.243Z,94487.38
2023-05-17T05:39:46.303Z,94454.19
2023-05-17T05:42:14.961Z,94435.56
2023-05-17T05:44:42.199Z,94484.91
2023-05-17T05:47:09.185Z,94487.22
2023-05-17T05:49:36.010Z,94445.00
2023-05-17T05:52:04.152Z,94449.13
2023-05-17T05:54:31.290Z,94429.47
2023-05-17T05:56:58.387Z,94479.25
2023-05-17T05:59:25.372Z,94480.06
2023-05-17T06:01:52.413Z,94476.31
2023-05-17T06:04:21.008Z,94425.91
2023-05-17T06:06:49.568Z,94493.75
2023-05-17T06:09:17.071Z,94507.88
2023-05-17T06:11:43.884Z,94493.50
2023-05-17T06:14:11.278Z,94510.31
2023-05-17T06:16:38.222Z,94501.91
2023-05-17T06:19:05.087Z,94497.75
2023-05-17T06:21:32.027Z,94500.19
2023-05-17T06:23:59.205Z,94506.28
2023-05-17T06:26:26.130Z,94509.88
2023-05-17T06:28:52.922Z,94502.13
2023-05-17T06:31:22.944Z,94514.81
2023-05-17T06:33:49.935Z,94463.03
2023-05-17T06:36:16.902Z,94450.09
2023-05-17T06:38:43.897Z,94516.69
2023-05-17T06:41:13.178Z,94514.03
2023-05-17T06:43:40.038Z,94494.47
2023-05-17T06:46:06.771Z,94497.34
2023-05-17T06:48:33.795Z,94503.28
2023-05-17T06:51:00.900Z,94483.56
2023-05-17T06:53:27.848Z,94499.63
2023-05-17T06:55:54.698Z,94506.75
2023-05-17T06:58:21.581Z,94484.84
2023-05-17T07:00:48.435Z,94499.81
2023-05-17T07:03:15.339Z,94509.88
2023-05-17T07:05:42.496Z,94465.97
2023-05-17T07:08:09.300Z,94503.41
2023-05-17T07:10:36.125Z,94482.16
2023-05-17T07:13:02.904Z,94496.75
2023-05-17T07:15:30.215Z,94504.94
2023-05-17T07:17:57.381Z,94489.66
2023-05-17T07:20:24.376Z,94521.59
2023-05-17T07:22:51.183Z,94468.94
2023-05-17T07:25:19.066Z,94478.34
2023-05-17T07:27:46.155Z,94534.50
2023-05-17T07:30:13.359Z,94505.16
2023-05-17T07:32:40.462Z,94514.66
2023-05-17T07:35:07.784Z,94455.66
2023-05-17T07:37:34.756Z,94528.47
2023-05-17T07:40:01.785Z,94477.84
2023-05-17T07:42:28.682Z,94477.47
2023-05-17T07:44:55.528Z,94505.38
2023-05-17T07:47:22.366Z,94528.50
2023-05-17T07:49:49.214Z,94531.94
2023-05-17T07:52:16.534Z,94489.63
2023-05-17T07:54:43.279Z,94494.38
2023-05-17T07:57:10.558Z,94516.31
2023-05-17T07:59:37.355Z,94514.88
2023-05-17T08:02:04.338Z,94534.47
2023-05-17T08:04:31.277Z,94480.81
2023-05-17T08:06:58.315Z,94509.41
2023-05-17T08:09:25.102Z,94525.31
2023-05-17T08:11:54.613Z,94464.13
2023-05-17T08:14:24.728Z,94532.41
2023-05-17T08:16:52.150Z,94515.53
2023-05-17T08:19:19.653Z,94530.97
2023-05-17T08:21:46.930Z,94498.09
2023-05-17T08:24:13.781Z,94531.50
2023-05-17T08:26:41.170Z,94523.44
2023-05-17T08:29:08.042Z,94468.34
2023-05-17T08:31:35.449Z,94519.47
2023-05-17T08:34:02.270Z,94457.25
2023-05-17T08:36:29.216Z,94498.56
2023-05-17T08:38:56.228Z,94500.44
2023-05-17T08:41:23.114Z,94510.63
2023-05-17T08:43:51.186Z,94509.22
2023-05-17T08:46:23.791Z,94516.97
2023-05-17T08:48:53.149Z,94478.25
2023-05-17T08:51:21.156Z,94508.81
2023-05-17T08:53:48.185Z,94519.25
2023-05-17T08:56:18.711Z,94501.41
2023-05-17T09:01:18.375Z,94484.41
2023-05-17T09:03:49.143Z,94513.41
2023-05-17T09:06:23.809Z,94505.00
2023-05-17T09:08:53.408Z,94486.81
2023-05-17T09:11:30.755Z,94447.56
2023-05-17T09:14:02.159Z,94506.09
2023-05-17T09:16:33.633Z,94499.25
2023-05-17T09:19:01.441Z,94485.44
2023-05-17T09:21:31.005Z,94454.94
2023-05-17T09:26:43.251Z,94483.31
2023-05-17T09:29:16.822Z,94463.84
2023-05-17T09:31:44.756Z,94438.34
2023-05-17T09:34:12.246Z,94485.19
2023-05-17T09:36:43.671Z,94468.69
2023-05-17T09:39:13.179Z,94444.09
2023-05-17T09:41:48.400Z,94481.72
2023-05-17T09:44:15.945Z,94463.13
2023-05-17T09:46:45.521Z,94414.13
2023-05-17T09:49:13.149Z,94478.56
2023-05-17T09:51:45.802Z,94422.94
2023-05-17T09:54:13.506Z,94482.81
2023-05-17T09:56:41.234Z,94470.25
2023-05-17T09:59:13.182Z,94476.19
2023-05-17T10:01:43.477Z,94473.81
2023-05-17T10:04:11.514Z,94477.81
2023-05-17T10:09:14.730Z,94452.59
2023-05-17T10:11:46.136Z,94461.34
2023-05-17T10:14:24.455Z,94466.88
2023-05-17T10:16:52.289Z,94430.09
2023-05-17T10:19:21.506Z,94435.28
2023-05-17T10:21:51.195Z,94458.03
2023-05-17T10:24:19.444Z,94446.66
2023-05-17T10:26:47.832Z,94431.00
2023-05-17T10:29:16.145Z,94412.00
2023-05-17T10:31:43.589Z,94425.81
2023-05-17T10:34:12.559Z,94425.91
2023-05-17T10:36:40.677Z,94375.13
2023-05-17T10:39:10.432Z,94411.78
2023-05-17T10:41:42.360Z,94364.19
2023-05-17T10:44:12.089Z,94385.41
2023-05-17T10:46:39.510Z,94370.50
2023-05-17T10:49:07.250Z,94348.78
2023-05-17T10:51:37.869Z,94298.63
2023-05-17T10:54:12.035Z,94334.34
2023-05-17T10:56:51.412Z,94301.34
2023-05-17T10:59:24.555Z,94342.09
2023-05-17T11:01:56.063Z,94297.75
2023-05-17T11:04:33.869Z,94331.41
2023-05-17T11:07:19.393Z,94338.72
2023-05-17T11:10:08.807Z,94335.75
2023-05-17T11:12:40.235Z,94317.88
2023-05-17T11:15:08.659Z,94342.97
2023-05-17T11:17:57.851Z,94356.53
2023-05-17T11:20:28.055Z,94371.06
2023-05-17T11:23:06.204Z,94381.28
2023-05-17T11:25:36.269Z,94396.59
2023-05-17T11:28:36.481Z,94403.09
2023-05-17T11:31:03.730Z,94382.56
2023-05-17T11:33:40.447Z,94373.59
2023-05-17T11:36:15.709Z,94404.91
2023-05-17T11:38:42.740Z,94424.06
2023-05-17T11:43:53.480Z,94406.41
2023-05-17T11:46:22.651Z,94412.25
2023-05-17T11:48:53.993Z,94390.09
2023-05-17T11:51:24.862Z,94398.50
2023-05-17T11:53:56.064Z,94433.59
2023-05-17T11:56:39.583Z,94384.81
2023-05-17T11:59:10.338Z,94385.78
2023-05-17T12:01:47.747Z,94429.28
2023-05-17T12:04:14.868Z,94401.25
2023-05-17T12:06:42.713Z,94397.91
2023-05-17T12:09:11.346Z,94398.34
2023-05-17T12:11:39.624Z,94364.41
2023-05-17T12:14:07.425Z,94424.63
2023-05-17T12:16:41.716Z,94410.28
2023-05-17T12:19:19.120Z,94423.84
2023-05-17T12:21:46.737Z,94422.03
2023-05-17T12:24:14.261Z,94416.91
2023-05-17T12:26:45.202Z,94399.41
2023-05-17T12:29:14.184Z,94402.94
2023-05-17T12:31:43.508Z,94377.56
2023-05-17T12:34:12.917Z,94393.59
2023-05-17T12:36:40.840Z,94390.38
2023-05-17T12:39:10.199Z,94381.91
2023-05-17T12:41:38.739Z,94382.47
2023-05-17T12:44:15.524Z,94397.63
2023-05-17T12:46:43.975Z,94377.28
2023-05-17T12:49:12.466Z,94401.47
2023-05-17T12:51:46.223Z,94382.53
2023-05-17T12:54:34.483Z,94345.75
2023-05-17T12:57:13.003Z,94350.38
2023-05-17T12:59:50.225Z,94396.56
2023-05-17T13:02:19.539Z,94399.78
2023-05-17T13:04:46.689Z,94395.75
2023-05-17T13:07:21.895Z,94366.31
2023-05-17T13:09:49.565Z,94365.25
2023-05-17T13:12:39.289Z,94402.03
2023-05-17T13:15:07.862Z,94378.19
2023-05-17T13:17:37.102Z,94329.97
2023-05-17T13:20:06.457Z,94398.63
2023-05-17T13:22:34.715Z,94390.22
2023-05-17T13:25:03.333Z,94406.75
2023-05-17T13:27:30.455Z,94394.47
2023-05-17T13:29:57.598Z,94424.06
2023-05-17T13:32:24.400Z,94388.69
2023-05-17T13:34:51.642Z,94399.41
2023-05-17T13:37:18.712Z,94430.56
2023-05-17T13:39:45.941Z,94423.38
2023-05-17T13:42:15.409Z,94419.13
2023-05-17T13:44:42.180Z,94434.81
2023-05-17T13:47:08.997Z,94424.09
2023-05-17T13:49:36.292Z,94413.34
2023-05-17T13:52:03.754Z,94414.94
2023-05-17T13:54:30.635Z,94363.72
2023-05-17T13:56:57.705Z,94404.44
2023-05-17T13:59:24.609Z,94428.00
2023-05-17T14:01:51.905Z,94434.41
2023-05-17T14:04:20.122Z,94431.53
2023-05-17T14:06:48.941Z,94395.97
2023-05-17T14:09:16.291Z,94416.19
2023-05-17T14:11:43.422Z,94426.50
2023-05-17T14:14:10.222Z,94388.25
2023-05-17T14:16:37.707Z,94391.00
2023-05-17T14:19:04.949Z,94433.63
2023-05-17T14:21:32.624Z,94429.53
2023-05-17T14:23:59.469Z,94426.72
2023-05-17T14:26:26.852Z,94433.28
2023-05-17T14:28:56.868Z,94410.72
2023-05-17T14:31:23.894Z,94386.84
2023-05-17T14:33:51.577Z,94420.91
2023-05-17T14:36:21.532Z,94384.63
2023-05-17T14:38:48.471Z,94387.69
2023-05-17T14:41:18.659Z,94402.38
2023-05-17T14:43:47.757Z,94433.25
2023-05-17T14:46:17.563Z,94431.78
2023-05-17T14:48:44.658Z,94415.66
2023-05-17T14:51:12.339Z,94431.78
2023-05-17T14:53:38.998Z,94431.34
2023-05-17T14:56:06.045Z,94425.34
2023-05-17T14:58:36.445Z,94426.69
2023-05-17T15:01:05.511Z,94394.69
2023-05-17T15:03:35.317Z,94417.34
2023-05-17T15:06:06.301Z,94427.34
2023-05-17T15:08:35.602Z,94403.25
2023-05-17T15:11:02.420Z,94431.44
2023-05-17T15:13:29.117Z,94439.66
2023-05-17T15:15:56.146Z,94442.41
2023-05-17T15:18:23.119Z,94446.91
2023-05-17T15:20:50.352Z,94435.72
2023-05-17T15:23:17.537Z,94403.31
2023-05-17T15:25:44.532Z,94422.00
2023-05-17T15:28:11.906Z,94452.69
2023-05-17T15:30:38.923Z,94386.63
2023-05-17T15:33:06.777Z,94424.25
2023-05-17T15:35:33.658Z,94458.44
2023-05-17T15:38:08.988Z,94465.16
2023-05-17T15:40:36.391Z,94460.69
2023-05-17T15:43:03.193Z,94461.94
2023-05-17T15:45:30.360Z,94472.41
2023-05-17T15:47:57.560Z,94460.94
2023-05-17T15:50:25.111Z,94456.41
2023-05-17T15:52:52.063Z,94479.84
2023-05-17T15:55:22.121Z,94457.91
2023-05-17T15:57:49.160Z,94469.16
2023-05-17T16:00:16.482Z,94452.94
2023-05-17T16:02:43.501Z,94453.94
2023-05-17T16:05:12.068Z,94477.38
2023-05-17T16:07:39.220Z,94424.50
2023-05-17T16:10:06.578Z,94471.63
2023-05-17T16:12:33.451Z,94476.59
2023-05-17T16:15:00.721Z,94477.38
2023-05-17T16:17:27.496Z,94454.19
2023-05-17T16:19:54.295Z,94484.59
2023-05-17T16:22:21.645Z,94482.88
2023-05-17T16:24:52.313Z,94473.88
2023-05-17T16:27:19.287Z,94488.09
2023-05-17T16:29:46.013Z,94488.09
2023-05-17T16:32:13.104Z,94492.56
2023-05-17T16:34:39.874Z,94488.06
2023-05-17T16:37:07.591Z,94488.06
2023-05-17T16:39:34.485Z,94467.59
2023-05-17T16:42:02.186Z,94501.25
2023-05-17T16:44:28.999Z,94499.44
2023-05-17T16:46:55.983Z,94506.38
2023-05-17T16:49:23.337Z,94507.75
2023-05-17T16:51:52.083Z,94515.78
2023-05-17T16:54:19.292Z,94520.06
2023-05-17T16:56:50.677Z,94490.09
2023-05-17T16:59:19.450Z,94521.41
2023-05-17T17:01:46.815Z,94496.44
2023-05-17T17:04:14.305Z,94538.28
2023-05-17T17:06:41.404Z,94475.72
2023-05-17T17:09:09.469Z,94430.22
2023-05-17T17:11:36.626Z,94429.97
2023-05-17T17:14:04.527Z,94437.41
2023-05-17T17:16:32.768Z,94527.13
2023-05-17T17:19:00.004Z,94519.56
2023-05-17T17:21:27.931Z,94412.84
2023-05-17T17:23:55.149Z,94485.28
2023-05-17T17:26:22.189Z,94490.47
2023-05-17T17:28:49.088Z,94472.88
2023-05-17T17:31:18.165Z,94525.41
2023-05-17T17:33:45.318Z,94501.38
2023-05-17T17:36:19.951Z,94455.84
2023-05-17T17:38:47.438Z,94443.50
2023-05-17T17:41:14.561Z,94497.25
2023-05-17T17:43:43.046Z,94464.19
2023-05-17T17:46:10.604Z,94487.34
2023-05-17T17:48:38.318Z,94506.66
2023-05-17T17:51:05.812Z,94525.03
2023-05-17T17:53:33.072Z,94446.91
2023-05-17T17:55:59.872Z,94439.72
2023-05-17T17:58:30.003Z,94477.03
2023-05-17T18:00:57.837Z,94508.06
2023-05-17T18:03:25.510Z,94488.72
2023-05-17T18:05:52.880Z,94411.63
2023-05-17T18:08:20.511Z,94512.59
2023-05-17T18:10:47.713Z,94471.84
2023-05-17T18:13:14.872Z,94499.13
2023-05-17T18:15:42.498Z,94504.47
2023-05-17T18:18:09.750Z,94458.06
2023-05-17T18:20:37.087Z,94466.66
2023-05-17T18:23:04.331Z,94462.09
2023-05-17T18:25:31.525Z,94491.41
2023-05-17T18:27:58.476Z,94454.94
2023-05-17T18:30:25.518Z,94471.03
2023-05-17T18:32:52.930Z,94499.34
2023-05-17T18:35:19.905Z,94407.00
2023-05-17T18:37:47.709Z,94404.00
2023-05-17T18:40:18.294Z,94513.06
2023-05-17T18:42:45.826Z,94418.41
2023-05-17T18:45:13.409Z,94516.66
2023-05-17T18:47:40.898Z,94509.69
2023-05-17T18:50:08.583Z,94518.22
2023-05-17T18:52:35.839Z,94483.41
2023-05-17T18:55:03.314Z,94461.88
2023-05-17T18:57:30.873Z,94443.88
2023-05-17T18:59:58.151Z,94493.72
2023-05-17T19:02:28.537Z,94462.53
2023-05-17T19:04:58.670Z,94460.97
2023-05-17T19:07:25.637Z,94531.34
2023-05-17T19:09:52.508Z,94530.25
2023-05-17T19:12:19.494Z,94538.25
2023-05-17T19:14:46.708Z,94538.31
2023-05-17T19:17:13.764Z,94524.53
2023-05-17T19:19:40.562Z,94549.91
2023-05-17T19:22:07.831Z,94543.94
2023-05-17T19:24:35.773Z,94547.63
2023-05-17T19:27:03.002Z,94524.03
2023-05-17T19:29:32.727Z,94472.25
2023-05-17T19:31:59.731Z,94499.88
2023-05-17T19:34:27.004Z,94522.94
2023-05-17T19:36:54.227Z,94524.19
2023-05-17T19:39:21.536Z,94520.47
2023-05-17T19:41:48.506Z,94519.06
2023-05-17T19:44:21.510Z,94504.25
2023-05-17T19:46:48.889Z,94467.84
2023-05-17T19:49:19.287Z,94543.03
2023-05-17T19:51:46.963Z,94534.00
2023-05-17T19:54:14.264Z,94537.78
2023-05-17T19:56:41.131Z,94534.34
2023-05-17T19:59:08.106Z,94527.75
2023-05-17T20:01:34.979Z,94522.44
2023-05-17T20:04:03.728Z,94527.44
2023-05-17T20:06:31.085Z,94452.63
2023-05-17T20:08:58.022Z,94522.69
2023-05-17T20:11:24.909Z,94519.13
2023-05-17T20:13:51.857Z,94512.88
2023-05-17T20:16:18.947Z,94514.84
2023-05-17T20:18:46.121Z,94515.38
2023-05-17T20:21:19.802Z,94507.69
2023-05-17T20:23:47.191Z,94511.44
2023-05-17T20:26:19.698Z,94517.38
2023-05-17T20:28:46.590Z,94501.25
2023-05-17T20:31:13.713Z,94516.97
2023-05-17T20:33:40.909Z,94528.81
2023-05-17T20:36:08.660Z,94511.50
2023-05-17T20:38:35.344Z,94511.78
2023-05-17T20:41:02.129Z,94515.78
2023-05-17T20:43:34.576Z,94516.34
2023-05-17T20:46:01.637Z,94467.97
2023-05-17T20:48:28.469Z,94503.38
2023-05-17T20:50:55.147Z,94504.94
2023-05-17T20:53:22.069Z,94505.16
2023-05-17T20:55:49.412Z,94500.84
2023-05-17T20:58:16.190Z,94498.66
2023-05-17T21:00:42.993Z,94509.09
2023-05-17T21:03:11.196Z,94499.13
2023-05-17T21:05:38.663Z,94509.91
2023-05-17T21:08:07.469Z,94509.44
2023-05-17T21:10:36.171Z,94509.56
2023-05-17T21:13:02.922Z,94500.56
2023-05-17T21:15:29.720Z,94508.22
2023-05-17T21:17:56.459Z,94509.22
2023-05-17T21:20:24.698Z,94487.44
2023-05-17T21:22:51.682Z,94510.53
2023-05-17T21:25:18.354Z,94515.34
2023-05-17T21:27:45.056Z,94514.91
2023-05-17T21:30:11.869Z,94505.31
2023-05-17T21:32:38.852Z,94516.44
2023-05-17T21:35:06.046Z,94513.38
2023-05-17T21:37:32.791Z,94500.75
2023-05-17T21:39:59.477Z,94490.50
2023-05-17T21:42:26.214Z,94527.00
2023-05-17T21:44:52.898Z,94527.94
2023-05-17T21:47:19.584Z,94526.19
2023-05-17T21:49:46.396Z,94527.91
2023-05-17T21:52:13.244Z,94536.31
2023-05-17T21:54:41.351Z,94536.69
2023-05-17T21:57:08.773Z,94542.41
2023-05-17T21:59:35.688Z,94531.56
2023-05-17T22:02:02.447Z,94521.72
2023-05-17T22:04:29.174Z,94535.72
2023-05-17T22:06:56.487Z,94530.88
2023-05-17T22:09:23.203Z,94516.59
2023-05-17T22:11:50.196Z,94521.72
2023-05-17T22:14:17.005Z,94515.50
2023-05-17T22:16:44.580Z,94504.69
2023-05-17T22:19:12.491Z,94521.38
2023-05-17T22:21:39.612Z,94502.59
2023-05-17T22:24:06.821Z,94523.56
2023-05-17T22:26:33.916Z,94532.88
2023-05-17T22:29:00.675Z,94473.00
2023-05-17T22:31:27.829Z,94541.72
2023-05-17T22:33:54.844Z,94529.75
2023-05-17T22:36:25.113Z,94541.66
2023-05-17T22:38:51.966Z,94529.91
2023-05-17T22:41:18.836Z,94528.03
2023-05-17T22:43:45.646Z,94532.59
2023-05-17T22:46:12.398Z,94523.78
2023-05-17T22:48:40.661Z,94532.50
2023-05-17T22:51:07.930Z,94517.75
2023-05-17T22:53:35.132Z,94471.72
2023-05-17T22:56:02.032Z,94447.22
2023-05-17T22:58:29.024Z,94470.00
2023-05-17T23:00:56.242Z,94425.78
2023-05-17T23:03:23.162Z,94524.28
2023-05-17T23:05:51.559Z,94528.69
2023-05-17T23:08:18.560Z,94509.09
2023-05-17T23:10:45.756Z,94534.13
2023-05-17T23:13:13.036Z,94534.34
2023-05-17T23:15:40.960Z,94448.78
2023-05-17T23:18:08.135Z,94459.84
2023-05-17T23:20:35.223Z,94462.69
2023-05-17T23:23:02.179Z,94461.75
2023-05-17T23:25:29.874Z,94522.94
2023-05-17T23:27:58.207Z,94461.97
2023-05-17T23:30:26.475Z,94497.25
2023-05-17T23:32:55.325Z,94471.31
2023-05-17T23:35:23.638Z,94473.34
2023-05-17T23:37:51.082Z,94512.66
2023-05-17T23:40:17.907Z,94436.66
2023-05-17T23:42:44.687Z,94453.03
2023-05-17T23:45:11.640Z,94510.53
2023-05-17T23:47:40.768Z,94481.88
2023-05-17T23:50:12.194Z,94509.31
2023-05-17T23:52:39.310Z,94515.66
2023-05-17T23:55:09.150Z,94513.22
2023-05-17T23:57:36.079Z,94520.34
